Terminal Aerodrome Forecast
Issued by NWS

Home | Current Version | Previous Version | Text Only | Print | Product List | Glossary On
Versions: 1 2 3 4 5 6 7 8 9 10 11 12 13 14 15 16 17 18 19 20 21 22 23 24 25
000
FTUS41 KPBZ 062320
TAFFKL
TAF
KFKL 062320Z 0700/0724 02004KT P6SM SKC
     FM070500 07002KT 4SM BR SCT030
     FM071000 VRB01KT 1SM BR BKN010
     FM071300 14003KT P6SM BKN250
      AMD LTD TO CLD VIS AND WIND=

USA.gov is the U.S. government's official web portal to all federal, state and local government web resources and services.